sensor_id;sensor_type;location;lat;lon;timestamp;pressure;altitude;pressure_sealevel;temperature;humidity
62402;BME280;48440;51.224;22.506;2022-08-21T00:00:00;98772.31;;;22.72;61.03
62402;BME280;48440;51.224;22.506;2022-08-21T00:02:27;98781.97;;;22.66;61.12
62402;BME280;48440;51.224;22.506;2022-08-21T00:04:53;98778.66;;;22.60;61.42
62402;BME280;48440;51.224;22.506;2022-08-21T00:07:20;98780.84;;;22.55;61.80
62402;BME280;48440;51.224;22.506;2022-08-21T00:09:46;98789.03;;;22.51;61.97
62402;BME280;48440;51.224;22.506;2022-08-21T00:12:12;98780.84;;;22.55;61.83
62402;BME280;48440;51.224;22.506;2022-08-21T00:14:38;98778.78;;;22.52;61.87
62402;BME280;48440;51.224;22.506;2022-08-21T00:17:04;98780.38;;;22.53;61.91
62402;BME280;48440;51.224;22.506;2022-08-21T00:19:30;98786.25;;;22.51;61.96
62402;BME280;48440;51.224;22.506;2022-08-21T00:21:56;98782.69;;;22.51;61.93
62402;BME280;48440;51.224;22.506;2022-08-21T00:24:22;98786.59;;;22.50;61.99
62402;BME280;48440;51.224;22.506;2022-08-21T00:26:48;98790.88;;;22.47;62.18
62402;BME280;48440;51.224;22.506;2022-08-21T00:29:14;98786.16;;;22.48;62.08
62402;BME280;48440;51.224;22.506;2022-08-21T00:31:41;98784.41;;;22.43;62.11
62402;BME280;48440;51.224;22.506;2022-08-21T00:34:07;98782.13;;;22.33;62.40
62402;BME280;48440;51.224;22.506;2022-08-21T00:36:33;98773.94;;;22.24;62.99
62402;BME280;48440;51.224;22.506;2022-08-21T00:39:00;98769.34;;;22.28;62.60
62402;BME280;48440;51.224;22.506;2022-08-21T00:41:26;98767.25;;;22.25;62.97
62402;BME280;48440;51.224;22.506;2022-08-21T00:43:52;98766.44;;;22.25;62.73
62402;BME280;48440;51.224;22.506;2022-08-21T00:46:18;98764.97;;;22.27;62.61
62402;BME280;48440;51.224;22.506;2022-08-21T00:48:44;98768.66;;;22.31;62.69
62402;BME280;48440;51.224;22.506;2022-08-21T00:51:16;98765.75;;;22.28;62.63
62402;BME280;48440;51.224;22.506;2022-08-21T00:53:49;98764.16;;;22.27;62.52
62402;BME280;48440;51.224;22.506;2022-08-21T00:56:17;98771.97;;;22.25;62.78
62402;BME280;48440;51.224;22.506;2022-08-21T00:58:44;98765.53;;;22.21;62.98
62402;BME280;48440;51.224;22.506;2022-08-21T01:01:11;98763.44;;;22.18;63.12
62402;BME280;48440;51.224;22.506;2022-08-21T01:03:37;98760.91;;;22.13;63.17
62402;BME280;48440;51.224;22.506;2022-08-21T01:06:04;98759.63;;;22.10;63.47
62402;BME280;48440;51.224;22.506;2022-08-21T01:08:30;98759.19;;;22.08;63.41
62402;BME280;48440;51.224;22.506;2022-08-21T01:10:57;98762.63;;;22.05;63.60
62402;BME280;48440;51.224;22.506;2022-08-21T01:13:23;98768.28;;;22.09;63.35
62402;BME280;48440;51.224;22.506;2022-08-21T01:15:52;98762.97;;;22.04;63.60
62402;BME280;48440;51.224;22.506;2022-08-21T01:18:19;98755.97;;;22.06;63.88
62402;BME280;48440;51.224;22.506;2022-08-21T01:21:08;98755.97;;;22.06;63.26
62402;BME280;48440;51.224;22.506;2022-08-21T01:23:37;98760.34;;;22.07;63.29
62402;BME280;48440;51.224;22.506;2022-08-21T01:26:04;98754.81;;;22.07;63.50
62402;BME280;48440;51.224;22.506;2022-08-21T01:28:33;98756.50;;;21.99;63.71
62402;BME280;48440;51.224;22.506;2022-08-21T01:31:01;98754.88;;;21.98;63.69
62402;BME280;48440;51.224;22.506;2022-08-21T01:33:28;98755.22;;;21.97;63.53
62402;BME280;48440;51.224;22.506;2022-08-21T01:35:53;98750.72;;;21.92;63.92
62402;BME280;48440;51.224;22.506;2022-08-21T01:38:19;98749.09;;;21.91;63.85
62402;BME280;48440;51.224;22.506;2022-08-21T01:40:45;98743.13;;;21.89;63.84
62402;BME280;48440;51.224;22.506;2022-08-21T01:43:11;98749.78;;;21.88;64.35
62402;BME280;48440;51.224;22.506;2022-08-21T01:45:36;98741.50;;;21.88;63.92
62402;BME280;48440;51.224;22.506;2022-08-21T01:48:02;98740.00;;;21.79;64.15
62402;BME280;48440;51.224;22.506;2022-08-21T01:50:28;98742.75;;;21.79;64.27
62402;BME280;48440;51.224;22.506;2022-08-21T01:52:54;98747.34;;;21.75;64.67
62402;BME280;48440;51.224;22.506;2022-08-21T01:55:20;98749.97;;;21.71;64.71
62402;BME280;48440;51.224;22.506;2022-08-21T01:57:46;98748.72;;;21.68;64.75
62402;BME280;48440;51.224;22.506;2022-08-21T02:00:15;98755.16;;;21.73;64.63
62402;BME280;48440;51.224;22.506;2022-08-21T02:02:42;98743.31;;;21.72;64.61
62402;BME280;48440;51.224;22.506;2022-08-21T02:05:09;98746.28;;;21.67;65.00
62402;BME280;48440;51.224;22.506;2022-08-21T02:07:41;98752.63;;;21.67;64.83
62402;BME280;48440;51.224;22.506;2022-08-21T02:10:07;98750.19;;;21.66;64.73
62402;BME280;48440;51.224;22.506;2022-08-21T02:12:34;98750.53;;;21.64;64.71
62402;BME280;48440;51.224;22.506;2022-08-21T02:14:59;98748.25;;;21.66;64.81
62402;BME280;48440;51.224;22.506;2022-08-21T02:17:25;98744.88;;;21.61;65.03
62402;BME280;48440;51.224;22.506;2022-08-21T02:19:51;98741.78;;;21.62;64.98
62402;BME280;48440;51.224;22.506;2022-08-21T02:22:16;98737.66;;;21.56;65.08
62402;BME280;48440;51.224;22.506;2022-08-21T02:24:42;98731.53;;;21.51;65.28
62402;BME280;48440;51.224;22.506;2022-08-21T02:27:07;98724.88;;;21.52;65.21
62402;BME280;48440;51.224;22.506;2022-08-21T02:29:33;98725.19;;;21.50;65.22
62402;BME280;48440;51.224;22.506;2022-08-21T02:31:58;98734.84;;;21.44;65.61
62402;BME280;48440;51.224;22.506;2022-08-21T02:34:24;98737.13;;;21.42;65.62
62402;BME280;48440;51.224;22.506;2022-08-21T02:36:49;98733.91;;;21.40;65.76
62402;BME280;48440;51.224;22.506;2022-08-21T02:39:15;98728.72;;;21.39;65.80
62402;BME280;48440;51.224;22.506;2022-08-21T02:41:41;98725.16;;;21.38;65.82
62402;BME280;48440;51.224;22.506;2022-08-21T02:44:06;98729.38;;;21.36;65.67
62402;BME280;48440;51.224;22.506;2022-08-21T02:46:31;98729.19;;;21.41;65.58
62402;BME280;48440;51.224;22.506;2022-08-21T02:48:57;98717.69;;;21.39;65.80
62402;BME280;48440;51.224;22.506;2022-08-21T02:51:22;98716.19;;;21.41;65.50
62402;BME280;48440;51.224;22.506;2022-08-21T02:53:49;98717.34;;;21.40;65.46
62402;BME280;48440;51.224;22.506;2022-08-21T02:56:16;98719.38;;;21.31;65.80
62402;BME280;48440;51.224;22.506;2022-08-21T02:58:45;98711.00;;;21.27;66.00
62402;BME280;48440;51.224;22.506;2022-08-21T03:01:11;98702.44;;;21.20;66.27
62402;BME280;48440;51.224;22.506;2022-08-21T03:03:39;98713.94;;;21.22;65.97
62402;BME280;48440;51.224;22.506;2022-08-21T03:06:07;98702.09;;;21.22;65.94
62402;BME280;48440;51.224;22.506;2022-08-21T03:08:34;98709.75;;;21.16;66.46
62402;BME280;48440;51.224;22.506;2022-08-21T03:10:59;98708.59;;;21.17;66.55
62402;BME280;48440;51.224;22.506;2022-08-21T03:13:26;98715.59;;;21.15;66.45
62402;BME280;48440;51.224;22.506;2022-08-21T03:15:53;98716.28;;;21.12;66.41
62402;BME280;48440;51.224;22.506;2022-08-21T03:18:19;98718.56;;;21.10;66.47
62402;BME280;48440;51.224;22.506;2022-08-21T03:20:46;98718.56;;;21.10;66.56
62402;BME280;48440;51.224;22.506;2022-08-21T03:23:13;98715.66;;;21.06;66.77
62402;BME280;48440;51.224;22.506;2022-08-21T03:25:39;98715.66;;;21.06;66.79
62402;BME280;48440;51.224;22.506;2022-08-21T03:28:08;98718.19;;;20.99;66.91
62402;BME280;48440;51.224;22.506;2022-08-21T03:30:34;98725.56;;;21.07;66.31
62402;BME280;48440;51.224;22.506;2022-08-21T03:33:00;98720.94;;;20.99;66.64
62402;BME280;48440;51.224;22.506;2022-08-21T03:35:27;98718.03;;;20.95;66.88
62402;BME280;48440;51.224;22.506;2022-08-21T03:37:53;98717.72;;;20.97;66.80
62402;BME280;48440;51.224;22.506;2022-08-21T03:40:19;98712.19;;;20.97;66.81
62402;BME280;48440;51.224;22.506;2022-08-21T03:42:45;98713.34;;;20.96;67.27
62402;BME280;48440;51.224;22.506;2022-08-21T03:45:16;98709.44;;;20.97;66.75
62402;BME280;48440;51.224;22.506;2022-08-21T03:47:59;98717.72;;;20.97;66.86
62402;BME280;48440;51.224;22.506;2022-08-21T03:50:28;98718.84;;;20.96;67.00
62402;BME280;48440;51.224;22.506;2022-08-21T03:52:55;98720.47;;;20.97;66.48
62402;BME280;48440;51.224;22.506;2022-08-21T03:55:21;98718.03;;;20.95;66.89
62402;BME280;48440;51.224;22.506;2022-08-21T03:57:47;98709.63;;;20.92;67.12
62402;BME280;48440;51.224;22.506;2022-08-21T04:00:13;98712.59;;;20.87;67.29
62402;BME280;48440;51.224;22.506;2022-08-21T04:02:40;98707.88;;;20.87;67.07
62402;BME280;48440;51.224;22.506;2022-08-21T04:05:06;98712.94;;;20.85;67.18
62402;BME280;48440;51.224;22.506;2022-08-21T04:07:32;98709.69;;;20.83;67.04
62402;BME280;48440;51.224;22.506;2022-08-21T04:09:58;98713.41;;;20.87;67.06
62402;BME280;48440;51.224;22.506;2022-08-21T04:12:23;98717.28;;;20.86;67.14
62402;BME280;48440;51.224;22.506;2022-08-21T04:14:49;98717.28;;;20.86;67.22
62402;BME280;48440;51.224;22.506;2022-08-21T04:17:17;98723.16;;;20.85;66.84
62402;BME280;48440;51.224;22.506;2022-08-21T04:19:43;98717.97;;;20.83;67.16
62402;BME280;48440;51.224;22.506;2022-08-21T04:22:09;98710.97;;;20.86;67.07
62402;BME280;48440;51.224;22.506;2022-08-21T04:24:34;98710.84;;;20.82;67.08
62402;BME280;48440;51.224;22.506;2022-08-21T04:27:00;98712.13;;;20.85;67.06
62402;BME280;48440;51.224;22.506;2022-08-21T04:29:25;98718.09;;;20.87;66.91
62402;BME280;48440;51.224;22.506;2022-08-21T04:31:51;98711.13;;;20.89;67.16
62402;BME280;48440;51.224;22.506;2022-08-21T04:34:18;98718.78;;;20.84;67.23
62402;BME280;48440;51.224;22.506;2022-08-21T04:36:44;98718.31;;;20.82;67.31
62402;BME280;48440;51.224;22.506;2022-08-21T04:39:09;98717.28;;;20.86;67.03
62402;BME280;48440;51.224;22.506;2022-08-21T04:41:35;98717.09;;;20.91;66.78
62402;BME280;48440;51.224;22.506;2022-08-21T04:44:02;98722.41;;;20.96;67.00
62402;BME280;48440;51.224;22.506;2022-08-21T04:46:28;98728.53;;;21.02;66.80
62402;BME280;48440;51.224;22.506;2022-08-21T04:48:53;98720.75;;;21.04;66.79
62402;BME280;48440;51.224;22.506;2022-08-21T04:51:24;98725.03;;;21.14;66.50
62402;BME280;48440;51.224;22.506;2022-08-21T04:53:51;98718.66;;;21.22;66.26
62402;BME280;48440;51.224;22.506;2022-08-21T04:56:23;98713.06;;;21.30;65.77
62402;BME280;48440;51.224;22.506;2022-08-21T04:58:53;98708.25;;;21.40;65.58
62402;BME280;48440;51.224;22.506;2022-08-21T05:01:23;98712.75;;;21.44;65.73
62402;BME280;48440;51.224;22.506;2022-08-21T05:03:57;98720.16;;;21.52;65.51
62402;BME280;48440;51.224;22.506;2022-08-21T05:06:24;98721.88;;;21.57;65.03
62402;BME280;48440;51.224;22.506;2022-08-21T05:08:53;98720.03;;;21.61;64.97
62402;BME280;48440;51.224;22.506;2022-08-21T05:11:20;98704.53;;;21.68;64.88
62402;BME280;48440;51.224;22.506;2022-08-21T05:13:48;98715.72;;;21.84;64.32
62402;BME280;48440;51.224;22.506;2022-08-21T05:16:13;98712.50;;;21.94;64.08
62402;BME280;48440;51.224;22.506;2022-08-21T05:18:39;98710.97;;;22.06;63.95
62402;BME280;48440;51.224;22.506;2022-08-21T05:21:04;98720.03;;;22.18;63.59
62402;BME280;48440;51.224;22.506;2022-08-21T05:23:30;98718.19;;;22.22;63.49
62402;BME280;48440;51.224;22.506;2022-08-21T05:25:55;98720.25;;;22.38;62.90
62402;BME280;48440;51.224;22.506;2022-08-21T05:28:21;98723.72;;;22.47;62.87
62402;BME280;48440;51.224;22.506;2022-08-21T05:30:47;98723.03;;;22.50;62.57
62402;BME280;48440;51.224;22.506;2022-08-21T05:33:13;98723.47;;;22.64;62.57
62402;BME280;48440;51.224;22.506;2022-08-21T05:35:39;98723.78;;;22.75;62.27
62402;BME280;48440;51.224;22.506;2022-08-21T05:38:05;98730.84;;;22.84;61.85
62402;BME280;48440;51.224;22.506;2022-08-21T05:40:32;98719.38;;;22.98;61.49
62402;BME280;48440;51.224;22.506;2022-08-21T05:42:58;98714.06;;;23.05;61.25
62402;BME280;48440;51.224;22.506;2022-08-21T05:45:27;98721.50;;;23.17;60.57
62402;BME280;48440;51.224;22.506;2022-08-21T05:47:53;98723.00;;;23.14;60.67
62402;BME280;48440;51.224;22.506;2022-08-21T05:50:18;98722.19;;;23.14;60.72
62402;BME280;48440;51.224;22.506;2022-08-21T05:52:44;98725.28;;;23.24;60.49
62402;BME280;48440;51.224;22.506;2022-08-21T05:55:09;98729.19;;;23.35;60.24
62402;BME280;48440;51.224;22.506;2022-08-21T05:57:35;98726.84;;;23.38;60.22
62402;BME280;48440;51.224;22.506;2022-08-21T06:00:00;98727.66;;;23.38;60.39
62402;BME280;48440;51.224;22.506;2022-08-21T06:02:26;98718.72;;;23.45;59.98
62402;BME280;48440;51.224;22.506;2022-08-21T06:04:51;98724.25;;;23.57;59.59
62402;BME280;48440;51.224;22.506;2022-08-21T06:07:17;98730.09;;;23.83;59.32
62402;BME280;48440;51.224;22.506;2022-08-21T06:09:42;98728.13;;;23.99;58.25
62402;BME280;48440;51.224;22.506;2022-08-21T06:12:10;98731.72;;;24.16;58.09
62402;BME280;48440;51.224;22.506;2022-08-21T06:14:39;98731.38;;;24.33;57.44
62402;BME280;48440;51.224;22.506;2022-08-21T06:17:07;98726.81;;;24.41;57.49
62402;BME280;48440;51.224;22.506;2022-08-21T06:19:34;98725.19;;;24.75;56.68
62402;BME280;48440;51.224;22.506;2022-08-21T06:21:59;98714.59;;;24.96;56.30
62402;BME280;48440;51.224;22.506;2022-08-21T06:24:25;98720.63;;;25.17;56.01
62402;BME280;48440;51.224;22.506;2022-08-21T06:26:51;98720.59;;;25.36;55.24
62402;BME280;48440;51.224;22.506;2022-08-21T06:29:17;98720.94;;;25.54;54.43
62402;BME280;48440;51.224;22.506;2022-08-21T06:31:43;98711.38;;;25.71;54.01
62402;BME280;48440;51.224;22.506;2022-08-21T06:34:09;98714.28;;;25.78;54.19
62402;BME280;48440;51.224;22.506;2022-08-21T06:36:36;98710.88;;;25.88;54.12
62402;BME280;48440;51.224;22.506;2022-08-21T06:39:02;98721.41;;;25.98;53.52
62402;BME280;48440;51.224;22.506;2022-08-21T06:41:28;98723.00;;;26.22;52.81
62402;BME280;48440;51.224;22.506;2022-08-21T06:43:55;98723.91;;;26.30;52.69
62402;BME280;48440;51.224;22.506;2022-08-21T06:46:22;98724.63;;;26.27;52.28
62402;BME280;48440;51.224;22.506;2022-08-21T06:48:48;98725.34;;;26.43;51.81
62402;BME280;48440;51.224;22.506;2022-08-21T06:51:14;98731.22;;;26.64;51.88
62402;BME280;48440;51.224;22.506;2022-08-21T06:53:40;98730.72;;;26.85;51.59
62402;BME280;48440;51.224;22.506;2022-08-21T06:56:05;98729.16;;;26.88;51.45
62402;BME280;48440;51.224;22.506;2022-08-21T06:58:31;98721.53;;;27.11;50.90
62402;BME280;48440;51.224;22.506;2022-08-21T07:00:56;98726.13;;;27.26;50.15
62402;BME280;48440;51.224;22.506;2022-08-21T07:03:31;98721.75;;;27.29;50.07
62402;BME280;48440;51.224;22.506;2022-08-21T07:05:57;98721.09;;;27.39;49.61
62402;BME280;48440;51.224;22.506;2022-08-21T07:08:26;98717.59;;;27.46;50.70
62402;BME280;48440;51.224;22.506;2022-08-21T07:10:53;98718.94;;;27.59;49.35
62402;BME280;48440;51.224;22.506;2022-08-21T07:13:20;98723.75;;;27.62;49.67
62402;BME280;48440;51.224;22.506;2022-08-21T07:15:45;98721.56;;;27.82;48.92
62402;BME280;48440;51.224;22.506;2022-08-21T07:18:11;98709.66;;;27.85;48.73
62402;BME280;48440;51.224;22.506;2022-08-21T07:20:38;98720.50;;;27.93;48.62
62402;BME280;48440;51.224;22.506;2022-08-21T07:23:08;98718.13;;;27.95;48.53
62402;BME280;48440;51.224;22.506;2022-08-21T07:25:35;98719.31;;;27.94;48.36
62402;BME280;48440;51.224;22.506;2022-08-21T07:28:01;98718.59;;;28.01;48.01
62402;BME280;48440;51.224;22.506;2022-08-21T07:30:27;98713.78;;;27.98;47.62
62402;BME280;48440;51.224;22.506;2022-08-21T07:32:53;98707.94;;;28.14;47.79
62402;BME280;48440;51.224;22.506;2022-08-21T07:35:19;98715.28;;;28.29;47.72
62402;BME280;48440;51.224;22.506;2022-08-21T07:37:44;98714.50;;;28.35;46.96
62402;BME280;48440;51.224;22.506;2022-08-21T07:40:11;98719.25;;;28.28;46.91
62402;BME280;48440;51.224;22.506;2022-08-21T07:42:44;98715.38;;;28.43;46.96
62402;BME280;48440;51.224;22.506;2022-08-21T07:45:11;98710.19;;;28.45;46.65
62402;BME280;48440;51.224;22.506;2022-08-21T07:47:37;98709.47;;;28.55;46.68
62402;BME280;48440;51.224;22.506;2022-08-21T07:50:04;98712.38;;;28.73;46.55
62402;BME280;48440;51.224;22.506;2022-08-21T07:52:29;98704.91;;;28.88;46.26
62402;BME280;48440;51.224;22.506;2022-08-21T07:54:55;98714.16;;;28.99;46.18
62402;BME280;48440;51.224;22.506;2022-08-21T07:57:20;98708.56;;;28.99;46.06
62402;BME280;48440;51.224;22.506;2022-08-21T07:59:46;98703.38;;;29.01;45.93
62402;BME280;48440;51.224;22.506;2022-08-21T08:02:22;98703.41;;;29.04;46.67
62402;BME280;48440;51.224;22.506;2022-08-21T08:04:47;98711.00;;;29.04;45.80
62402;BME280;48440;51.224;22.506;2022-08-21T08:07:13;98702.19;;;28.98;46.32
62402;BME280;48440;51.224;22.506;2022-08-21T08:09:38;98705.81;;;29.06;45.63
62402;BME280;48440;51.224;22.506;2022-08-21T08:12:04;98699.03;;;29.07;45.39
62402;BME280;48440;51.224;22.506;2022-08-21T08:14:29;98691.44;;;29.11;45.42
62402;BME280;48440;51.224;22.506;2022-08-21T08:16:55;98695.00;;;28.97;45.77
62402;BME280;48440;51.224;22.506;2022-08-21T08:19:20;98692.25;;;29.12;46.05
62402;BME280;48440;51.224;22.506;2022-08-21T08:21:46;98694.66;;;29.13;45.80
62402;BME280;48440;51.224;22.506;2022-08-21T08:24:11;98690.31;;;29.23;45.84
62402;BME280;48440;51.224;22.506;2022-08-21T08:26:37;98690.34;;;29.33;45.10
62402;BME280;48440;51.224;22.506;2022-08-21T08:29:02;98691.56;;;29.36;44.73
62402;BME280;48440;51.224;22.506;2022-08-21T08:31:28;98682.44;;;29.46;44.93
62402;BME280;48440;51.224;22.506;2022-08-21T08:33:53;98685.22;;;29.50;45.43
62402;BME280;48440;51.224;22.506;2022-08-21T08:36:18;98680.78;;;29.31;44.85
62402;BME280;48440;51.224;22.506;2022-08-21T08:38:44;98678.69;;;29.14;45.66
62402;BME280;48440;51.224;22.506;2022-08-21T08:41:12;98684.25;;;29.03;46.05
62402;BME280;48440;51.224;22.506;2022-08-21T08:43:39;98686.63;;;29.01;46.31
62402;BME280;48440;51.224;22.506;2022-08-21T08:46:11;98679.53;;;29.25;46.24
62402;BME280;48440;51.224;22.506;2022-08-21T08:48:59;98679.56;;;29.28;45.58
62402;BME280;48440;51.224;22.506;2022-08-21T08:51:44;98675.25;;;29.52;44.94
62402;BME280;48440;51.224;22.506;2022-08-21T08:54:16;98676.06;;;29.67;44.77
62402;BME280;48440;51.224;22.506;2022-08-21T08:56:43;98677.28;;;29.73;44.85
62402;BME280;48440;51.224;22.506;2022-08-21T08:59:19;98680.91;;;29.91;44.35
62402;BME280;48440;51.224;22.506;2022-08-21T09:01:46;98674.13;;;29.85;43.97
62402;BME280;48440;51.224;22.506;2022-08-21T09:04:13;98678.06;;;29.56;44.75
62402;BME280;48440;51.224;22.506;2022-08-21T09:09:31;98674.50;;;29.73;44.56
62402;BME280;48440;51.224;22.506;2022-08-21T09:12:31;98669.28;;;29.68;45.43
62402;BME280;48440;51.224;22.506;2022-08-21T09:15:23;98672.16;;;30.03;44.24
62402;BME280;48440;51.224;22.506;2022-08-21T09:23:25;98666.06;;;29.52;43.95
62402;BME280;48440;51.224;22.506;2022-08-21T09:28:38;98658.50;;;29.59;43.95
62402;BME280;48440;51.224;22.506;2022-08-21T09:31:08;98670.72;;;29.16;45.03
62402;BME280;48440;51.224;22.506;2022-08-21T09:33:36;98665.94;;;29.09;45.36
62402;BME280;48440;51.224;22.506;2022-08-21T09:36:02;98664.81;;;29.38;44.50
62402;BME280;48440;51.224;22.506;2022-08-21T09:38:33;98670.78;;;29.37;44.29
62402;BME280;48440;51.224;22.506;2022-08-21T09:41:05;98672.72;;;29.08;44.91
62402;BME280;48440;51.224;22.506;2022-08-21T09:43:32;98677.03;;;28.98;45.07
62402;BME280;48440;51.224;22.506;2022-08-21T09:46:09;98668.16;;;28.79;45.09
62402;BME280;48440;51.224;22.506;2022-08-21T09:48:45;98663.91;;;29.06;44.98
62402;BME280;48440;51.224;22.506;2022-08-21T09:51:15;98655.59;;;29.24;44.73
62402;BME280;48440;51.224;22.506;2022-08-21T09:53:49;98652.50;;;29.50;44.92
62402;BME280;48440;51.224;22.506;2022-08-21T09:56:25;98651.72;;;29.75;44.02
62402;BME280;48440;51.224;22.506;2022-08-21T09:59:31;98653.38;;;30.04;43.17
62402;BME280;48440;51.224;22.506;2022-08-21T10:02:00;98656.97;;;30.08;42.51
62402;BME280;48440;51.224;22.506;2022-08-21T10:04:36;98646.56;;;29.87;42.49
62402;BME280;48440;51.224;22.506;2022-08-21T10:07:13;98666.56;;;30.07;42.95
62402;BME280;48440;51.224;22.506;2022-08-21T10:09:40;98650.97;;;30.02;42.03
62402;BME280;48440;51.224;22.506;2022-08-21T10:12:16;98658.97;;;30.11;42.57
62402;BME280;48440;51.224;22.506;2022-08-21T10:15:04;98653.75;;;30.27;42.60
62402;BME280;48440;51.224;22.506;2022-08-21T10:17:42;98662.56;;;30.36;42.53
62402;BME280;48440;51.224;22.506;2022-08-21T10:25:53;98647.34;;;30.20;42.74
62402;BME280;48440;51.224;22.506;2022-08-21T10:28:40;98650.19;;;30.13;42.88
62402;BME280;48440;51.224;22.506;2022-08-21T10:37:35;98640.94;;;29.73;42.69
62402;BME280;48440;51.224;22.506;2022-08-21T10:45:20;98645.78;;;30.08;42.02
62402;BME280;48440;51.224;22.506;2022-08-21T10:47:56;98636.97;;;29.74;42.63
62402;BME280;48440;51.224;22.506;2022-08-21T10:50:50;98641.25;;;29.32;43.99
62402;BME280;48440;51.224;22.506;2022-08-21T10:56:00;98640.38;;;29.14;44.77
62402;BME280;48440;51.224;22.506;2022-08-21T10:58:37;98643.56;;;29.06;44.90
62402;BME280;48440;51.224;22.506;2022-08-21T11:01:38;98645.88;;;28.86;45.57
62402;BME280;48440;51.224;22.506;2022-08-21T11:05:02;98650.03;;;28.48;45.88
62402;BME280;48440;51.224;22.506;2022-08-21T11:07:36;98643.94;;;28.28;46.12
62402;BME280;48440;51.224;22.506;2022-08-21T11:10:12;98642.97;;;28.10;46.53
62402;BME280;48440;51.224;22.506;2022-08-21T11:12:46;98630.25;;;28.16;46.20
62402;BME280;48440;51.224;22.506;2022-08-21T11:17:54;98624.22;;;28.68;45.54
62402;BME280;48440;51.224;22.506;2022-08-21T11:20:29;98625.94;;;28.91;45.88
62402;BME280;48440;51.224;22.506;2022-08-21T11:23:03;98625.22;;;29.15;45.52
62402;BME280;48440;51.224;22.506;2022-08-21T11:25:35;98628.81;;;29.12;44.67
62402;BME280;48440;51.224;22.506;2022-08-21T11:28:08;98616.88;;;29.19;45.10
62402;BME280;48440;51.224;22.506;2022-08-21T11:39:25;98630.81;;;29.12;44.33
62402;BME280;48440;51.224;22.506;2022-08-21T11:47:25;98621.06;;;28.70;45.85
62402;BME280;48440;51.224;22.506;2022-08-21T11:52:37;98628.16;;;28.60;46.13
62402;BME280;48440;51.224;22.506;2022-08-21T11:55:08;98629.78;;;28.61;45.49
62402;BME280;48440;51.224;22.506;2022-08-21T11:58:01;98619.34;;;28.48;45.33
62402;BME280;48440;51.224;22.506;2022-08-21T12:00:38;98612.88;;;28.36;46.27
62402;BME280;48440;51.224;22.506;2022-08-21T12:03:22;98613.28;;;28.31;46.64
62402;BME280;48440;51.224;22.506;2022-08-21T12:05:56;98614.44;;;28.27;46.91
62402;BME280;48440;51.224;22.506;2022-08-21T12:08:33;98623.09;;;28.15;46.56
62402;BME280;48440;51.224;22.506;2022-08-21T12:13:29;98621.38;;;27.99;46.87
62402;BME280;48440;51.224;22.506;2022-08-21T12:16:13;98619.78;;;27.98;46.78
62402;BME280;48440;51.224;22.506;2022-08-21T12:18:39;98615.00;;;27.99;46.42
62402;BME280;48440;51.224;22.506;2022-08-21T12:21:25;98616.19;;;27.98;46.63
62402;BME280;48440;51.224;22.506;2022-08-21T12:24:05;98612.66;;;28.04;47.01
62402;BME280;48440;51.224;22.506;2022-08-21T12:29:30;98622.25;;;28.11;46.42
62402;BME280;48440;51.224;22.506;2022-08-21T12:31:58;98616.66;;;28.07;46.20
62402;BME280;48440;51.224;22.506;2022-08-21T12:34:32;98615.84;;;28.03;45.85
62402;BME280;48440;51.224;22.506;2022-08-21T12:39:49;98627.97;;;27.77;46.91
62402;BME280;48440;51.224;22.506;2022-08-21T12:42:23;98623.56;;;27.73;46.77
62402;BME280;48440;51.224;22.506;2022-08-21T12:45:02;98623.97;;;27.75;46.51
62402;BME280;48440;51.224;22.506;2022-08-21T12:47:44;98617.22;;;27.76;46.76
62402;BME280;48440;51.224;22.506;2022-08-21T12:50:11;98626.03;;;27.85;47.21
62402;BME280;48440;51.224;22.506;2022-08-21T12:53:00;98615.28;;;27.83;47.69
62402;BME280;48440;51.224;22.506;2022-08-21T12:55:32;98616.06;;;27.80;47.77
62402;BME280;48440;51.224;22.506;2022-08-21T12:57:58;98616.84;;;27.77;47.81
62402;BME280;48440;51.224;22.506;2022-08-21T13:00:26;98616.06;;;27.80;47.44
62402;BME280;48440;51.224;22.506;2022-08-21T13:02:53;98618.06;;;27.80;47.47
62402;BME280;48440;51.224;22.506;2022-08-21T13:05:33;98618.78;;;27.73;46.53
62402;BME280;48440;51.224;22.506;2022-08-21T13:08:04;98605.63;;;27.70;47.44
62402;BME280;48440;51.224;22.506;2022-08-21T13:10:32;98617.91;;;27.65;47.56
62402;BME280;48440;51.224;22.506;2022-08-21T13:13:05;98612.72;;;27.64;47.27
62402;BME280;48440;51.224;22.506;2022-08-21T13:15:35;98599.88;;;27.52;47.47
62402;BME280;48440;51.224;22.506;2022-08-21T13:18:04;98594.69;;;27.51;47.56
62402;BME280;48440;51.224;22.506;2022-08-21T13:23:02;98595.88;;;27.50;47.81
62402;BME280;48440;51.224;22.506;2022-08-21T13:25:33;98601.41;;;27.46;47.91
62402;BME280;48440;51.224;22.506;2022-08-21T13:28:11;98600.19;;;27.44;47.93
62402;BME280;48440;51.224;22.506;2022-08-21T13:30:58;98599.81;;;27.49;47.92
62402;BME280;48440;51.224;22.506;2022-08-21T13:33:29;98603.81;;;27.48;47.39
62402;BME280;48440;51.224;22.506;2022-08-21T13:36:07;98609.72;;;27.43;47.62
62402;BME280;48440;51.224;22.506;2022-08-21T13:38:35;98606.88;;;27.39;47.94
62402;BME280;48440;51.224;22.506;2022-08-21T13:41:04;98601.69;;;27.37;49.00
62402;BME280;48440;51.224;22.506;2022-08-21T13:43:33;98602.81;;;27.29;48.11
62402;BME280;48440;51.224;22.506;2022-08-21T13:46:00;98607.19;;;27.27;48.41
62402;BME280;48440;51.224;22.506;2022-08-21T13:48:30;98616.72;;;27.29;48.21
62402;BME280;48440;51.224;22.506;2022-08-21T13:50:58;98607.19;;;27.30;48.14
62402;BME280;48440;51.224;22.506;2022-08-21T13:55:51;98604.03;;;27.32;47.93
62402;BME280;48440;51.224;22.506;2022-08-21T13:58:26;98611.16;;;27.29;47.99
62402;BME280;48440;51.224;22.506;2022-08-21T14:00:53;98606.81;;;27.32;47.79
62402;BME280;48440;51.224;22.506;2022-08-21T14:03:30;98604.44;;;27.34;47.86